• Join FlightAware (Why Join?)
  • Login
  • US Flag 
04:38AM EDT


 

Airport Tracker/Info


-or-


 

Live Flight TrackerFlight Track Log ✈ UAL4457 ✈ 11-Apr-2013 ✈ KIAH - KLEX

Flight Track Log - Related Links

Times and Time Zones

All times are in EDT time to prevent confusion due to time zone crossing. See the UAL4457 flight status page for this flight to view local times or setup timezone preferences in your user account.

Time Position Orientation Groundspeed Altitude Reporting Facility
EDT Latitude Longitude Course Direction KTS MPH feet Rate Location/Type
04:50PM 29.9839 -95.3578 30° Northeast 167 192 600  Level Houston Center
04:51PM 30.0275 -95.3525 North 200 230 2,100 1,800 Climbing Houston Center
04:51PM 30.0869 -95.3356 14° North 251 289 4,000 1,860 Climbing Houston Center
04:53PM 30.4427 -95.1444 27° Northeast  Level FlightAware Approximate
04:53PM 30.1639 -95.3044 19° North 264 304 6,000  Level Houston Center
04:54PM 30.5529 -95.0869 30° Northeast  Level FlightAware Approximate
04:54PM 30.2400 -95.2667 23° Northeast 268 308 8,600  Level Houston Center
04:55PM 30.6568 -95.0122 30° Northeast  Level FlightAware Approximate
04:55PM 30.3006 -95.2372 23° Northeast 287 330 10,600  Level Houston Center
04:56PM 30.3978 -95.1889 23° Northeast 321 369 12,100 1,080 Climbing Houston Center
04:57PM 30.4878 -95.1386 26° Northeast 371 427 13,100 1,680 Climbing Houston Center
04:58PM 30.6014 -95.0683 28° Northeast 383 441 15,600 2,040 Climbing Houston Center
04:59PM 30.6936 -95.0103 28° Northeast 377 434 17,400 1,680 Climbing Houston Center
05:00PM 30.7883 -94.9508 28° Northeast 385 443 19,100 1,200 Climbing Houston Center
05:01PM 30.8839 -94.8928 28° Northeast 386 444 20,000 480 Climbing Houston Center
05:02PM 30.9453 -94.8558 27° Northeast 384 442 20,000 600 Level Fort Worth Center
05:03PM 31.0400 -94.7950 29° Northeast 384 442 21,000 1,260 Climbing Fort Worth Center
05:04PM 31.1328 -94.7367 28° Northeast 384 442 22,600 1,680 Climbing Fort Worth Center
05:05PM 31.2256 -94.6756 29° Northeast 384 442 24,400 1,200 Climbing Fort Worth Center
05:06PM 31.3158 -94.6122 31° Northeast 374 430 25,000 1,080 Climbing Fort Worth Center
05:07PM 31.4208 -94.5383 31° Northeast 380 437 26,600 1,320 Climbing Fort Worth Center
05:08PM 31.5064 -94.4578 39° Northeast 380 437 27,700 960 Climbing Fort Worth Center
05:09PM 31.5922 -94.3794 38° Northeast 390 449 28,600 1,200 Climbing Fort Worth Center
05:10PM 31.6758 -94.2986 39° Northeast 390 449 30,200 1,500 Climbing Fort Worth Center
05:11PM 31.7556 -94.2225 39° Northeast 385 443 31,700 1,260 Climbing Fort Worth Center
05:12PM 31.8369 -94.1464 38° Northeast 385 443 32,800 840 Climbing Fort Worth Center
05:13PM 31.9186 -94.0700 38° Northeast 379 436 33,500 600 Climbing Fort Worth Center
05:14PM 32.0039 -93.9861 40° Northeast 384 442 34,100 600 Climbing Fort Worth Center
05:15PM 32.0917 -93.9069 37° Northeast 390 449 34,800 420 Climbing Fort Worth Center
05:16PM 32.1628 -93.8378 39° Northeast 390 449 35,000 60 Climbing Fort Worth Center
05:17PM 32.2639 -93.7333 41° Northeast 411 473 35,000  Level Fort Worth Center
05:18PM 32.3614 -93.6383 39° Northeast 433 498 35,000  Level Fort Worth Center
05:19PM 32.4650 -93.5403 39° Northeast 460 529 35,000  Level Fort Worth Center
05:20PM 32.5703 -93.4372 40° Northeast 476 548 35,000  Level Fort Worth Center
05:21PM 32.6756 -93.3364 39° Northeast 486 559 35,000  Level Fort Worth Center
05:22PM 32.7786 -93.2353 40° Northeast 481 554 35,000  Level Fort Worth Center
05:23PM 32.8839 -93.1339 39° Northeast 481 554 35,000  Level Fort Worth Center
05:24PM 32.9867 -93.0325 40° Northeast 481 554 35,000  Level Fort Worth Center
05:25PM 33.0936 -92.9281 39° Northeast 481 554 35,000  Level Fort Worth Center
05:27PM 33.3478 -92.6800 39° Northeast 487 560 35,000  Level Memphis Center
05:28PM 33.4539 -92.5731 40° Northeast 487 560 35,000  Level Memphis Center
05:29PM 33.5622 -92.4661 39° Northeast 492 566 35,000  Level Memphis Center
05:30PM 33.6725 -92.3592 39° Northeast 497 572 35,000  Level Memphis Center
05:31PM 33.7786 -92.2492 41° Northeast 497 572 35,000  Level Memphis Center
05:32PM 33.8908 -92.1389 39° Northeast 508 585 35,000  Level Memphis Center
05:33PM 34.0031 -92.0258 40° Northeast 508 585 35,000  Level Memphis Center
05:34PM 34.1236 -91.9003 41° Northeast 508 585 35,000  Level Memphis Center
05:35PM 34.2378 -91.7817 41° Northeast 515 593 35,000  Level Memphis Center
05:36PM 34.3453 -91.6703 41° Northeast 520 598 35,000  Level Memphis Center
05:37PM 34.4614 -91.5561 39° Northeast 526 605 35,000  Level Memphis Center
05:38PM 34.5728 -91.4417 40° Northeast 531 611 35,000  Level Memphis Center
05:39PM 34.6864 -91.3244 40° Northeast 531 611 35,000  Level Memphis Center
05:40PM 34.7833 -91.2219 41° Northeast 524 603 35,000  Level Memphis Center
05:41PM 34.8925 -91.1117 40° Northeast 516 594 35,000  Level Memphis Center
05:42PM 35.0036 -90.9958 40° Northeast 511 588 35,000  Level Memphis Center
05:43PM 35.1106 -90.8800 42° Northeast 511 588 35,000  Level Memphis Center
05:44PM 35.2175 -90.7664 41° Northeast 505 581 35,000  Level Memphis Center
05:45PM 35.3367 -90.6422 40° Northeast 513 590 35,000  Level Memphis Center
05:46PM 35.4433 -90.5278 41° Northeast 508 585 35,000  Level Memphis Center
05:47PM 35.5517 -90.4131 41° Northeast 508 585 35,000  Level Memphis Center
05:48PM 35.6603 -90.2983 41° Northeast 508 585 35,000  Level Memphis Center
05:49PM 35.7603 -90.1831 43° Northeast 494 568 35,000  Level Memphis Center
05:50PM 35.8683 -90.0700 40° Northeast 494 568 35,000  Level Memphis Center
05:51PM 35.9767 -89.9542 41° Northeast 499 574 35,000  Level Memphis Center
05:52PM 36.0844 -89.8356 42° Northeast 509 586 35,000  Level Memphis Center
05:53PM 36.1944 -89.7192 40° Northeast 509 586 35,000  Level Memphis Center
05:54PM 36.3022 -89.6025 41° Northeast 504 580 35,000  Level Memphis Center
05:55PM 36.4119 -89.4881 40° Northeast 504 580 35,000  Level Memphis Center
05:56PM 36.5133 -89.3758 42° Northeast 517 595 35,000  Level Memphis Center
05:57PM 36.6228 -89.2503 43° Northeast 531 611 35,000  Level Memphis Center
05:58PM 36.7319 -89.1272 42° Northeast 531 611 35,000  Level Memphis Center
05:59PM 36.8431 -89.0036 42° Northeast 531 611 35,000  Level Memphis Center
06:00PM 36.9542 -88.8797 42° Northeast 531 611 35,000  Level Memphis Center
06:01PM 37.0672 -88.7556 41° Northeast 531 611 35,000  Level Memphis Center
06:02PM 37.1761 -88.6336 42° Northeast 531 611 35,000  Level Memphis Center
06:04PM 37.4089 -88.3608 43° Northeast 543 625 35,000  Level Indianapolis Center
06:05PM 37.5317 -88.2222 42° Northeast 541 623 35,000  Level Indianapolis Center
06:06PM 37.6353 -88.1022 43° Northeast 541 623 35,000  Level Indianapolis Center
06:07PM 37.7467 -87.9728 43° Northeast 538 619 35,000 -180 Level Indianapolis Center
06:08PM 37.8644 -87.8378 42° Northeast 539 620 34,700 -600 Descending Indianapolis Center
06:09PM 37.9342 -87.6781 61° Northeast 520 598 33,800 -840 Descending Indianapolis Center
06:10PM 37.9511 -87.5036 83° East 503 579 33,000 -420 Descending Indianapolis Center
06:11PM 37.9656 -87.3328 84° East 493 567 33,000 -60 Level Indianapolis Center
06:12PM 37.9831 -87.1328 84° East 482 555 32,900 -540 Descending Indianapolis Center
06:13PM 37.9967 -86.9647 84° East 484 557 31,900 -1,200 Descending Indianapolis Center
06:14PM 38.0108 -86.7975 84° East 482 555 30,500 -1,620 Descending Indianapolis Center
06:15PM 38.0242 -86.6250 84° East 490 564 28,600 -1,860 Descending Indianapolis Center
06:17PM 38.0392 -86.4492 84° East 500 575 26,700 -1,920 Descending Indianapolis Center
06:18PM 38.0544 -86.2392 85° East 500 575 24,700 -1,320 Descending Indianapolis Center
06:19PM 38.0686 -86.0683 84° East 491 565 24,000 -1,620 Descending Indianapolis Center
06:20PM 38.0800 -85.9050 85° East 469 540 21,400 -3,000 Descending Indianapolis Center
06:21PM 38.0922 -85.7461 84° East 454 522 17,900 -3,000 Descending Indianapolis Center
06:22PM 38.1017 -85.5983 85° East 424 488 15,200 -2,340 Descending Indianapolis Center
06:23PM 38.0906 -85.4656 96° East 380 437 13,100 -1,920 Descending Indianapolis Center
06:24PM 38.0753 -85.3467 99° East 348 400 11,300 -1,020 Descending Indianapolis Center
06:25PM 38.0622 -85.2128 97° East 320 368 11,000 -180 Descending Indianapolis Center
06:26PM 38.0469 -85.1014 100° East 340 391 11,000  Level Indianapolis Center
06:27PM 38.0592 -84.9781 83° East 360 414 11,000 -780 Level Indianapolis Center
06:28PM 38.1086 -84.8683 60° Northeast 312 359 9,500 -1,500 Descending Indianapolis Center
06:29PM 38.1469 -84.7792 61° Northeast 291 335 7,900 -1,740 Descending Indianapolis Center
06:30PM 38.1803 -84.6906 64° Northeast 282 325 5,900 -1,980 Descending Indianapolis Center
06:31PM 38.2058 -84.5969 71° East 281 323 3,900 -1,380 Descending Indianapolis Center
06:32PM 38.2192 -84.4994 80° East 281 323 3,100 -420 Descending Indianapolis Center
06:33PM 38.1864 -84.4392 125° Southeast 242 278 3,100  Level Indianapolis Center
06:34PM 38.1486 -84.4753 217° Southwest 199 229 3,200 60 Climbing Indianapolis Center